sensor_id;sensor_type;location;lat;lon;timestamp;P1;durP1;ratioP1;P2;durP2;ratioP2
43807;SDS011;29438;50.664;10.098;2022-07-18T00:01:00;1.50;;;0.30;;
43807;SDS011;29438;50.664;10.098;2022-07-18T00:03:25;2.05;;;0.40;;
43807;SDS011;29438;50.664;10.098;2022-07-18T00:05:51;1.05;;;0.40;;
43807;SDS011;29438;50.664;10.098;2022-07-18T00:08:16;1.80;;;0.30;;
43807;SDS011;29438;50.664;10.098;2022-07-18T00:10:42;1.85;;;0.40;;
43807;SDS011;29438;50.664;10.098;2022-07-18T00:13:08;1.20;;;0.30;;
43807;SDS011;29438;50.664;10.098;2022-07-18T00:15:35;1.73;;;0.30;;
43807;SDS011;29438;50.664;10.098;2022-07-18T00:18:00;0.90;;;0.30;;
43807;SDS011;29438;50.664;10.098;2022-07-18T00:20:27;1.83;;;0.30;;
43807;SDS011;29438;50.664;10.098;2022-07-18T00:22:52;4.82;;;0.47;;
43807;SDS011;29438;50.664;10.098;2022-07-18T00:25:18;1.30;;;0.32;;
43807;SDS011;29438;50.664;10.098;2022-07-18T00:27:43;3.17;;;0.40;;
43807;SDS011;29438;50.664;10.098;2022-07-18T00:30:09;2.10;;;0.40;;
43807;SDS011;29438;50.664;10.098;2022-07-18T00:32:35;3.38;;;0.20;;
43807;SDS011;29438;50.664;10.098;2022-07-18T00:35:00;2.85;;;0.40;;
43807;SDS011;29438;50.664;10.098;2022-07-18T00:37:26;1.70;;;0.40;;
43807;SDS011;29438;50.664;10.098;2022-07-18T00:39:51;1.23;;;0.38;;
43807;SDS011;29438;50.664;10.098;2022-07-18T00:42:17;1.65;;;0.30;;
43807;SDS011;29438;50.664;10.098;2022-07-18T00:44:44;0.90;;;0.28;;
43807;SDS011;29438;50.664;10.098;2022-07-18T00:47:09;1.20;;;0.35;;
43807;SDS011;29438;50.664;10.098;2022-07-18T00:49:35;1.85;;;0.35;;
43807;SDS011;29438;50.664;10.098;2022-07-18T00:52:01;1.90;;;0.50;;
43807;SDS011;29438;50.664;10.098;2022-07-18T00:54:26;2.95;;;0.63;;
43807;SDS011;29438;50.664;10.098;2022-07-18T00:56:52;2.00;;;0.40;;
43807;SDS011;29438;50.664;10.098;2022-07-18T00:59:18;1.90;;;0.30;;
43807;SDS011;29438;50.664;10.098;2022-07-18T01:01:44;1.58;;;0.40;;
43807;SDS011;29438;50.664;10.098;2022-07-18T01:04:15;2.65;;;0.35;;
43807;SDS011;29438;50.664;10.098;2022-07-18T01:06:44;1.17;;;0.30;;
43807;SDS011;29438;50.664;10.098;2022-07-18T01:09:11;1.73;;;0.30;;
43807;SDS011;29438;50.664;10.098;2022-07-18T01:11:37;3.92;;;0.47;;
43807;SDS011;29438;50.664;10.098;2022-07-18T01:14:04;1.77;;;0.40;;
43807;SDS011;29438;50.664;10.098;2022-07-18T01:16:30;2.47;;;0.38;;
43807;SDS011;29438;50.664;10.098;2022-07-18T01:18:56;2.63;;;0.38;;
43807;SDS011;29438;50.664;10.098;2022-07-18T01:21:22;1.85;;;0.50;;
43807;SDS011;29438;50.664;10.098;2022-07-18T01:23:48;2.15;;;0.43;;
43807;SDS011;29438;50.664;10.098;2022-07-18T01:26:14;1.70;;;0.30;;
43807;SDS011;29438;50.664;10.098;2022-07-18T01:28:40;1.77;;;0.30;;
43807;SDS011;29438;50.664;10.098;2022-07-18T01:31:06;1.45;;;0.40;;
43807;SDS011;29438;50.664;10.098;2022-07-18T01:33:32;1.88;;;0.45;;
43807;SDS011;29438;50.664;10.098;2022-07-18T01:35:58;2.72;;;0.52;;
43807;SDS011;29438;50.664;10.098;2022-07-18T01:38:25;1.10;;;0.30;;
43807;SDS011;29438;50.664;10.098;2022-07-18T01:40:52;4.45;;;0.47;;
43807;SDS011;29438;50.664;10.098;2022-07-18T01:43:18;3.22;;;0.55;;
43807;SDS011;29438;50.664;10.098;2022-07-18T01:45:43;1.35;;;0.30;;
43807;SDS011;29438;50.664;10.098;2022-07-18T01:48:09;2.08;;;0.30;;
43807;SDS011;29438;50.664;10.098;2022-07-18T01:50:35;1.85;;;0.30;;
43807;SDS011;29438;50.664;10.098;2022-07-18T01:53:00;1.30;;;0.40;;
43807;SDS011;29438;50.664;10.098;2022-07-18T01:55:26;1.70;;;0.40;;
43807;SDS011;29438;50.664;10.098;2022-07-18T01:57:51;1.45;;;0.30;;
43807;SDS011;29438;50.664;10.098;2022-07-18T02:00:17;1.95;;;0.40;;
43807;SDS011;29438;50.664;10.098;2022-07-18T02:02:42;3.63;;;0.50;;
43807;SDS011;29438;50.664;10.098;2022-07-18T02:05:08;1.52;;;0.40;;
43807;SDS011;29438;50.664;10.098;2022-07-18T02:07:37;2.67;;;0.50;;
43807;SDS011;29438;50.664;10.098;2022-07-18T02:10:12;1.50;;;0.38;;
43807;SDS011;29438;50.664;10.098;2022-07-18T02:12:40;1.70;;;0.40;;
43807;SDS011;29438;50.664;10.098;2022-07-18T02:15:06;3.47;;;0.40;;
43807;SDS011;29438;50.664;10.098;2022-07-18T02:17:35;1.10;;;0.50;;
43807;SDS011;29438;50.664;10.098;2022-07-18T02:20:01;1.45;;;0.38;;
43807;SDS011;29438;50.664;10.098;2022-07-18T02:22:28;1.20;;;0.40;;
43807;SDS011;29438;50.664;10.098;2022-07-18T02:24:54;1.92;;;0.40;;
43807;SDS011;29438;50.664;10.098;2022-07-18T02:27:19;2.00;;;0.50;;
43807;SDS011;29438;50.664;10.098;2022-07-18T02:29:45;1.88;;;0.50;;
43807;SDS011;29438;50.664;10.098;2022-07-18T02:32:11;1.55;;;0.30;;
43807;SDS011;29438;50.664;10.098;2022-07-18T02:34:36;2.53;;;0.40;;
43807;SDS011;29438;50.664;10.098;2022-07-18T02:37:03;2.60;;;0.25;;
43807;SDS011;29438;50.664;10.098;2022-07-18T02:39:29;1.52;;;0.50;;
43807;SDS011;29438;50.664;10.098;2022-07-18T02:41:54;1.98;;;0.25;;
43807;SDS011;29438;50.664;10.098;2022-07-18T02:44:20;1.77;;;0.40;;
43807;SDS011;29438;50.664;10.098;2022-07-18T02:46:46;1.20;;;0.20;;
43807;SDS011;29438;50.664;10.098;2022-07-18T02:49:12;1.52;;;0.40;;
43807;SDS011;29438;50.664;10.098;2022-07-18T02:51:51;1.65;;;0.47;;
43807;SDS011;29438;50.664;10.098;2022-07-18T02:54:18;2.80;;;0.50;;
43807;SDS011;29438;50.664;10.098;2022-07-18T02:56:43;2.25;;;0.38;;
43807;SDS011;29438;50.664;10.098;2022-07-18T02:59:09;2.13;;;0.40;;
43807;SDS011;29438;50.664;10.098;2022-07-18T03:01:34;1.98;;;0.40;;
43807;SDS011;29438;50.664;10.098;2022-07-18T03:04:00;1.13;;;0.32;;
43807;SDS011;29438;50.664;10.098;2022-07-18T03:06:27;1.27;;;0.35;;
43807;SDS011;29438;50.664;10.098;2022-07-18T03:08:53;3.10;;;0.40;;
43807;SDS011;29438;50.664;10.098;2022-07-18T03:11:19;1.50;;;0.50;;
43807;SDS011;29438;50.664;10.098;2022-07-18T03:13:44;1.27;;;0.50;;
43807;SDS011;29438;50.664;10.098;2022-07-18T03:16:09;1.05;;;0.40;;
43807;SDS011;29438;50.664;10.098;2022-07-18T03:18:35;3.45;;;0.20;;
43807;SDS011;29438;50.664;10.098;2022-07-18T03:21:00;2.25;;;0.40;;
43807;SDS011;29438;50.664;10.098;2022-07-18T03:23:26;1.58;;;0.30;;
43807;SDS011;29438;50.664;10.098;2022-07-18T03:25:52;1.30;;;0.40;;
43807;SDS011;29438;50.664;10.098;2022-07-18T03:28:17;2.78;;;0.40;;
43807;SDS011;29438;50.664;10.098;2022-07-18T03:30:43;1.95;;;0.40;;
43807;SDS011;29438;50.664;10.098;2022-07-18T03:33:08;1.40;;;0.30;;
43807;SDS011;29438;50.664;10.098;2022-07-18T03:35:34;3.58;;;0.57;;
43807;SDS011;29438;50.664;10.098;2022-07-18T03:37:59;1.35;;;0.40;;
43807;SDS011;29438;50.664;10.098;2022-07-18T03:40:25;2.55;;;0.68;;
43807;SDS011;29438;50.664;10.098;2022-07-18T03:42:50;2.47;;;0.50;;
43807;SDS011;29438;50.664;10.098;2022-07-18T03:45:16;3.33;;;0.75;;
43807;SDS011;29438;50.664;10.098;2022-07-18T03:47:41;2.25;;;0.50;;
43807;SDS011;29438;50.664;10.098;2022-07-18T03:50:07;2.05;;;0.55;;
43807;SDS011;29438;50.664;10.098;2022-07-18T03:52:33;2.35;;;0.50;;
43807;SDS011;29438;50.664;10.098;2022-07-18T03:55:00;2.22;;;0.50;;
43807;SDS011;29438;50.664;10.098;2022-07-18T03:57:26;1.73;;;0.43;;
43807;SDS011;29438;50.664;10.098;2022-07-18T03:59:52;3.33;;;0.50;;
43807;SDS011;29438;50.664;10.098;2022-07-18T04:02:18;3.88;;;0.55;;
43807;SDS011;29438;50.664;10.098;2022-07-18T04:04:43;1.50;;;0.30;;
43807;SDS011;29438;50.664;10.098;2022-07-18T04:07:09;1.83;;;0.30;;
43807;SDS011;29438;50.664;10.098;2022-07-18T04:09:34;1.58;;;0.30;;
43807;SDS011;29438;50.664;10.098;2022-07-18T04:12:00;0.98;;;0.30;;
43807;SDS011;29438;50.664;10.098;2022-07-18T04:14:25;1.00;;;0.30;;
43807;SDS011;29438;50.664;10.098;2022-07-18T04:16:51;1.05;;;0.30;;
43807;SDS011;29438;50.664;10.098;2022-07-18T04:19:16;1.15;;;0.40;;
43807;SDS011;29438;50.664;10.098;2022-07-18T04:21:42;2.42;;;0.40;;
43807;SDS011;29438;50.664;10.098;2022-07-18T04:24:08;3.50;;;0.68;;
43807;SDS011;29438;50.664;10.098;2022-07-18T04:26:34;2.10;;;0.65;;
43807;SDS011;29438;50.664;10.098;2022-07-18T04:28:59;2.50;;;0.50;;
43807;SDS011;29438;50.664;10.098;2022-07-18T04:31:25;2.92;;;0.57;;
43807;SDS011;29438;50.664;10.098;2022-07-18T04:33:51;1.77;;;0.50;;
43807;SDS011;29438;50.664;10.098;2022-07-18T04:36:16;4.05;;;0.60;;
43807;SDS011;29438;50.664;10.098;2022-07-18T04:38:43;1.92;;;0.30;;
43807;SDS011;29438;50.664;10.098;2022-07-18T04:41:09;2.42;;;0.50;;
43807;SDS011;29438;50.664;10.098;2022-07-18T04:43:34;1.80;;;0.47;;
43807;SDS011;29438;50.664;10.098;2022-07-18T04:46:00;3.15;;;0.45;;
43807;SDS011;29438;50.664;10.098;2022-07-18T04:48:25;1.73;;;0.40;;
43807;SDS011;29438;50.664;10.098;2022-07-18T04:50:51;2.08;;;0.40;;
43807;SDS011;29438;50.664;10.098;2022-07-18T04:53:17;2.17;;;0.68;;
43807;SDS011;29438;50.664;10.098;2022-07-18T04:55:42;2.60;;;0.40;;
43807;SDS011;29438;50.664;10.098;2022-07-18T04:58:08;1.92;;;0.50;;
43807;SDS011;29438;50.664;10.098;2022-07-18T05:00:33;1.77;;;0.40;;
43807;SDS011;29438;50.664;10.098;2022-07-18T05:02:59;2.15;;;0.50;;
43807;SDS011;29438;50.664;10.098;2022-07-18T05:05:25;4.82;;;0.57;;
43807;SDS011;29438;50.664;10.098;2022-07-18T05:07:52;2.05;;;0.40;;
43807;SDS011;29438;50.664;10.098;2022-07-18T05:10:19;2.30;;;0.40;;
43807;SDS011;29438;50.664;10.098;2022-07-18T05:12:46;2.92;;;0.50;;
43807;SDS011;29438;50.664;10.098;2022-07-18T05:15:15;1.08;;;0.30;;
43807;SDS011;29438;50.664;10.098;2022-07-18T05:17:41;3.75;;;0.63;;
43807;SDS011;29438;50.664;10.098;2022-07-18T05:20:09;4.72;;;0.93;;
43807;SDS011;29438;50.664;10.098;2022-07-18T05:22:40;2.47;;;0.40;;
43807;SDS011;29438;50.664;10.098;2022-07-18T05:25:06;1.77;;;0.40;;
43807;SDS011;29438;50.664;10.098;2022-07-18T05:27:32;1.42;;;0.40;;
43807;SDS011;29438;50.664;10.098;2022-07-18T05:29:58;1.88;;;0.40;;
43807;SDS011;29438;50.664;10.098;2022-07-18T05:32:25;1.83;;;0.50;;
43807;SDS011;29438;50.664;10.098;2022-07-18T05:34:51;4.10;;;0.55;;
43807;SDS011;29438;50.664;10.098;2022-07-18T05:37:16;2.35;;;0.60;;
43807;SDS011;29438;50.664;10.098;2022-07-18T05:39:42;2.25;;;0.40;;
43807;SDS011;29438;50.664;10.098;2022-07-18T05:42:08;2.45;;;0.60;;
43807;SDS011;29438;50.664;10.098;2022-07-18T05:44:33;3.20;;;0.90;;
43807;SDS011;29438;50.664;10.098;2022-07-18T05:46:59;1.52;;;0.70;;
43807;SDS011;29438;50.664;10.098;2022-07-18T05:49:24;1.95;;;0.70;;
43807;SDS011;29438;50.664;10.098;2022-07-18T05:51:50;3.60;;;0.70;;
43807;SDS011;29438;50.664;10.098;2022-07-18T05:54:15;2.83;;;1.23;;
43807;SDS011;29438;50.664;10.098;2022-07-18T05:56:47;2.97;;;1.02;;
43807;SDS011;29438;50.664;10.098;2022-07-18T05:59:14;4.63;;;1.17;;
43807;SDS011;29438;50.664;10.098;2022-07-18T06:01:40;2.75;;;1.00;;
43807;SDS011;29438;50.664;10.098;2022-07-18T06:04:06;3.55;;;0.90;;
43807;SDS011;29438;50.664;10.098;2022-07-18T06:06:31;2.80;;;0.88;;
43807;SDS011;29438;50.664;10.098;2022-07-18T06:08:57;3.13;;;0.82;;
43807;SDS011;29438;50.664;10.098;2022-07-18T06:11:22;4.00;;;0.70;;
43807;SDS011;29438;50.664;10.098;2022-07-18T06:13:48;1.70;;;0.43;;
43807;SDS011;29438;50.664;10.098;2022-07-18T06:16:14;1.98;;;0.60;;
43807;SDS011;29438;50.664;10.098;2022-07-18T06:18:39;4.90;;;0.60;;
43807;SDS011;29438;50.664;10.098;2022-07-18T06:21:05;2.90;;;0.50;;
43807;SDS011;29438;50.664;10.098;2022-07-18T06:23:30;2.05;;;0.40;;
43807;SDS011;29438;50.664;10.098;2022-07-18T06:25:56;1.05;;;0.32;;
43807;SDS011;29438;50.664;10.098;2022-07-18T06:28:22;2.00;;;0.30;;
43807;SDS011;29438;50.664;10.098;2022-07-18T06:30:49;1.63;;;0.30;;
43807;SDS011;29438;50.664;10.098;2022-07-18T06:33:15;3.80;;;0.47;;
43807;SDS011;29438;50.664;10.098;2022-07-18T06:35:40;2.15;;;0.40;;
43807;SDS011;29438;50.664;10.098;2022-07-18T06:38:06;2.30;;;0.40;;
43807;SDS011;29438;50.664;10.098;2022-07-18T06:40:31;1.33;;;0.40;;
43807;SDS011;29438;50.664;10.098;2022-07-18T06:42:57;2.85;;;0.35;;
43807;SDS011;29438;50.664;10.098;2022-07-18T06:45:23;2.22;;;0.40;;
43807;SDS011;29438;50.664;10.098;2022-07-18T06:47:48;3.55;;;0.50;;
43807;SDS011;29438;50.664;10.098;2022-07-18T06:50:14;2.45;;;0.50;;
43807;SDS011;29438;50.664;10.098;2022-07-18T06:52:40;2.08;;;0.57;;
43807;SDS011;29438;50.664;10.098;2022-07-18T06:55:07;2.10;;;0.50;;
43807;SDS011;29438;50.664;10.098;2022-07-18T06:57:34;4.03;;;0.45;;
43807;SDS011;29438;50.664;10.098;2022-07-18T07:00:00;0.90;;;0.30;;
43807;SDS011;29438;50.664;10.098;2022-07-18T07:02:25;3.00;;;0.60;;
43807;SDS011;29438;50.664;10.098;2022-07-18T07:04:51;2.17;;;0.50;;
43807;SDS011;29438;50.664;10.098;2022-07-18T07:07:16;0.98;;;0.40;;
43807;SDS011;29438;50.664;10.098;2022-07-18T07:09:42;2.92;;;0.30;;
43807;SDS011;29438;50.664;10.098;2022-07-18T07:12:08;4.13;;;0.50;;
43807;SDS011;29438;50.664;10.098;2022-07-18T07:14:35;2.30;;;0.60;;
43807;SDS011;29438;50.664;10.098;2022-07-18T07:17:01;2.15;;;0.60;;
43807;SDS011;29438;50.664;10.098;2022-07-18T07:19:26;1.90;;;0.50;;
43807;SDS011;29438;50.664;10.098;2022-07-18T07:21:52;1.63;;;0.40;;
43807;SDS011;29438;50.664;10.098;2022-07-18T07:24:17;3.28;;;0.60;;
43807;SDS011;29438;50.664;10.098;2022-07-18T07:26:43;2.35;;;0.45;;
43807;SDS011;29438;50.664;10.098;2022-07-18T07:29:08;2.08;;;0.52;;
43807;SDS011;29438;50.664;10.098;2022-07-18T07:31:34;2.17;;;0.45;;
43807;SDS011;29438;50.664;10.098;2022-07-18T07:33:59;4.63;;;0.70;;
43807;SDS011;29438;50.664;10.098;2022-07-18T07:36:25;2.50;;;0.52;;
43807;SDS011;29438;50.664;10.098;2022-07-18T07:38:50;2.45;;;0.57;;
43807;SDS011;29438;50.664;10.098;2022-07-18T07:41:16;2.70;;;0.70;;
43807;SDS011;29438;50.664;10.098;2022-07-18T07:43:41;2.00;;;0.60;;
43807;SDS011;29438;50.664;10.098;2022-07-18T07:46:07;1.50;;;0.65;;
43807;SDS011;29438;50.664;10.098;2022-07-18T07:48:33;2.50;;;0.40;;
43807;SDS011;29438;50.664;10.098;2022-07-18T07:50:59;1.45;;;0.38;;
43807;SDS011;29438;50.664;10.098;2022-07-18T07:53:27;2.28;;;0.30;;
43807;SDS011;29438;50.664;10.098;2022-07-18T07:55:53;0.80;;;0.30;;
43807;SDS011;29438;50.664;10.098;2022-07-18T07:58:18;1.80;;;0.70;;
43807;SDS011;29438;50.664;10.098;2022-07-18T08:00:44;2.15;;;0.55;;
43807;SDS011;29438;50.664;10.098;2022-07-18T08:03:09;2.05;;;0.45;;
43807;SDS011;29438;50.664;10.098;2022-07-18T08:05:36;2.08;;;0.50;;
43807;SDS011;29438;50.664;10.098;2022-07-18T08:08:04;1.65;;;0.20;;
43807;SDS011;29438;50.664;10.098;2022-07-18T08:10:31;1.85;;;0.50;;
43807;SDS011;29438;50.664;10.098;2022-07-18T08:12:57;1.38;;;0.28;;
43807;SDS011;29438;50.664;10.098;2022-07-18T08:15:23;2.75;;;0.30;;
43807;SDS011;29438;50.664;10.098;2022-07-18T08:17:49;1.98;;;0.20;;
43807;SDS011;29438;50.664;10.098;2022-07-18T08:20:15;1.10;;;0.32;;
43807;SDS011;29438;50.664;10.098;2022-07-18T08:25:22;2.05;;;0.40;;
43807;SDS011;29438;50.664;10.098;2022-07-18T08:27:48;1.70;;;0.20;;
43807;SDS011;29438;50.664;10.098;2022-07-18T08:30:14;1.05;;;0.20;;
43807;SDS011;29438;50.664;10.098;2022-07-18T08:32:40;0.85;;;0.30;;
43807;SDS011;29438;50.664;10.098;2022-07-18T08:35:06;1.30;;;0.20;;
43807;SDS011;29438;50.664;10.098;2022-07-18T08:37:32;0.98;;;0.20;;
43807;SDS011;29438;50.664;10.098;2022-07-18T08:39:57;0.80;;;0.30;;
43807;SDS011;29438;50.664;10.098;2022-07-18T08:42:25;1.15;;;0.30;;
43807;SDS011;29438;50.664;10.098;2022-07-18T08:47:51;3.45;;;0.30;;
43807;SDS011;29438;50.664;10.098;2022-07-18T08:50:17;1.73;;;0.30;;
43807;SDS011;29438;50.664;10.098;2022-07-18T08:52:43;1.25;;;0.30;;
43807;SDS011;29438;50.664;10.098;2022-07-18T08:55:09;1.58;;;0.40;;
43807;SDS011;29438;50.664;10.098;2022-07-18T08:57:36;1.23;;;0.30;;
43807;SDS011;29438;50.664;10.098;2022-07-18T09:00:06;2.67;;;0.30;;
43807;SDS011;29438;50.664;10.098;2022-07-18T09:02:33;1.42;;;0.22;;
43807;SDS011;29438;50.664;10.098;2022-07-18T09:05:03;1.38;;;0.30;;
43807;SDS011;29438;50.664;10.098;2022-07-18T09:07:30;1.35;;;0.20;;
43807;SDS011;29438;50.664;10.098;2022-07-18T09:10:03;2.10;;;0.32;;
43807;SDS011;29438;50.664;10.098;2022-07-18T09:12:30;1.00;;;0.20;;
43807;SDS011;29438;50.664;10.098;2022-07-18T09:14:56;2.17;;;0.30;;
43807;SDS011;29438;50.664;10.098;2022-07-18T09:17:28;3.50;;;0.40;;
43807;SDS011;29438;50.664;10.098;2022-07-18T09:22:34;0.82;;;0.17;;
43807;SDS011;29438;50.664;10.098;2022-07-18T09:32:48;1.70;;;0.30;;
43807;SDS011;29438;50.664;10.098;2022-07-18T09:35:27;2.20;;;0.30;;
43807;SDS011;29438;50.664;10.098;2022-07-18T09:37:58;1.65;;;0.20;;
43807;SDS011;29438;50.664;10.098;2022-07-18T09:40:32;1.25;;;0.38;;
43807;SDS011;29438;50.664;10.098;2022-07-18T09:43:01;1.13;;;0.40;;
43807;SDS011;29438;50.664;10.098;2022-07-18T09:45:36;1.27;;;0.28;;
43807;SDS011;29438;50.664;10.098;2022-07-18T09:48:04;2.17;;;0.28;;
43807;SDS011;29438;50.664;10.098;2022-07-18T09:50:35;1.52;;;0.40;;
43807;SDS011;29438;50.664;10.098;2022-07-18T09:55:48;0.73;;;0.20;;
43807;SDS011;29438;50.664;10.098;2022-07-18T09:58:18;1.83;;;0.40;;
43807;SDS011;29438;50.664;10.098;2022-07-18T10:00:46;0.98;;;0.40;;
43807;SDS011;29438;50.664;10.098;2022-07-18T10:03:13;1.52;;;0.30;;
43807;SDS011;29438;50.664;10.098;2022-07-18T10:05:39;1.35;;;0.30;;
43807;SDS011;29438;50.664;10.098;2022-07-18T10:08:07;2.03;;;0.32;;
43807;SDS011;29438;50.664;10.098;2022-07-18T10:10:38;1.98;;;0.40;;
43807;SDS011;29438;50.664;10.098;2022-07-18T10:13:05;0.88;;;0.32;;
43807;SDS011;29438;50.664;10.098;2022-07-18T10:15:33;1.33;;;0.40;;
43807;SDS011;29438;50.664;10.098;2022-07-18T10:18:04;1.25;;;0.35;;
43807;SDS011;29438;50.664;10.098;2022-07-18T10:20:32;1.27;;;0.25;;
43807;SDS011;29438;50.664;10.098;2022-07-18T10:23:08;1.50;;;0.20;;
43807;SDS011;29438;50.664;10.098;2022-07-18T10:25:40;1.48;;;0.30;;
43807;SDS011;29438;50.664;10.098;2022-07-18T10:28:10;1.92;;;0.30;;
43807;SDS011;29438;50.664;10.098;2022-07-18T10:30:44;1.25;;;0.50;;
43807;SDS011;29438;50.664;10.098;2022-07-18T10:36:07;0.85;;;0.20;;
43807;SDS011;29438;50.664;10.098;2022-07-18T10:38:35;1.05;;;0.22;;
43807;SDS011;29438;50.664;10.098;2022-07-18T10:41:05;1.65;;;0.20;;
43807;SDS011;29438;50.664;10.098;2022-07-18T10:43:36;0.65;;;0.20;;
43807;SDS011;29438;50.664;10.098;2022-07-18T10:46:04;0.88;;;0.20;;
43807;SDS011;29438;50.664;10.098;2022-07-18T10:51:03;0.90;;;0.20;;
43807;SDS011;29438;50.664;10.098;2022-07-18T10:53:54;1.55;;;0.30;;
43807;SDS011;29438;50.664;10.098;2022-07-18T10:56:20;1.10;;;0.25;;
43807;SDS011;29438;50.664;10.098;2022-07-18T10:59:19;1.15;;;0.20;;
43807;SDS011;29438;50.664;10.098;2022-07-18T11:01:54;2.88;;;0.25;;
43807;SDS011;29438;50.664;10.098;2022-07-18T11:04:21;1.00;;;0.30;;
43807;SDS011;29438;50.664;10.098;2022-07-18T11:07:10;1.05;;;0.30;;
43807;SDS011;29438;50.664;10.098;2022-07-18T11:17:57;1.60;;;0.28;;
43807;SDS011;29438;50.664;10.098;2022-07-18T11:22:59;2.15;;;0.32;;
43807;SDS011;29438;50.664;10.098;2022-07-18T11:25:28;1.70;;;0.38;;
43807;SDS011;29438;50.664;10.098;2022-07-18T11:27:54;1.13;;;0.30;;
43807;SDS011;29438;50.664;10.098;2022-07-18T11:30:21;1.55;;;0.32;;
43807;SDS011;29438;50.664;10.098;2022-07-18T11:32:49;1.20;;;0.30;;
43807;SDS011;29438;50.664;10.098;2022-07-18T11:35:20;2.13;;;0.40;;
43807;SDS011;29438;50.664;10.098;2022-07-18T11:37:47;0.90;;;0.20;;
43807;SDS011;29438;50.664;10.098;2022-07-18T11:40:14;1.13;;;0.30;;
43807;SDS011;29438;50.664;10.098;2022-07-18T11:42:40;1.25;;;0.50;;
43807;SDS011;29438;50.664;10.098;2022-07-18T11:45:07;2.42;;;0.40;;
43807;SDS011;29438;50.664;10.098;2022-07-18T11:47:53;1.20;;;0.20;;
43807;SDS011;29438;50.664;10.098;2022-07-18T11:50:27;2.90;;;0.30;;
43807;SDS011;29438;50.664;10.098;2022-07-18T11:53:00;0.90;;;0.30;;
43807;SDS011;29438;50.664;10.098;2022-07-18T11:55:35;1.67;;;0.32;;
43807;SDS011;29438;50.664;10.098;2022-07-18T11:58:05;0.98;;;0.30;;
43807;SDS011;29438;50.664;10.098;2022-07-18T12:00:35;2.20;;;0.30;;
43807;SDS011;29438;50.664;10.098;2022-07-18T12:03:01;1.05;;;0.30;;
43807;SDS011;29438;50.664;10.098;2022-07-18T12:05:33;1.67;;;0.45;;
43807;SDS011;29438;50.664;10.098;2022-07-18T12:08:00;0.95;;;0.30;;
43807;SDS011;29438;50.664;10.098;2022-07-18T12:10:26;1.17;;;0.30;;
43807;SDS011;29438;50.664;10.098;2022-07-18T12:12:52;1.85;;;0.47;;
43807;SDS011;29438;50.664;10.098;2022-07-18T12:15:19;1.88;;;0.50;;
43807;SDS011;29438;50.664;10.098;2022-07-18T12:17:46;2.88;;;0.73;;
43807;SDS011;29438;50.664;10.098;2022-07-18T12:28:19;2.33;;;0.35;;
43807;SDS011;29438;50.664;10.098;2022-07-18T12:30:46;1.75;;;0.30;;
43807;SDS011;29438;50.664;10.098;2022-07-18T12:33:12;1.75;;;0.50;;
43807;SDS011;29438;50.664;10.098;2022-07-18T12:35:39;2.10;;;0.50;;
43807;SDS011;29438;50.664;10.098;2022-07-18T12:40:40;2.17;;;0.47;;
43807;SDS011;29438;50.664;10.098;2022-07-18T12:43:06;2.33;;;0.50;;
43807;SDS011;29438;50.664;10.098;2022-07-18T12:45:35;1.83;;;0.50;;
43807;SDS011;29438;50.664;10.098;2022-07-18T12:48:02;3.65;;;0.35;;
43807;SDS011;29438;50.664;10.098;2022-07-18T12:50:28;2.03;;;0.55;;
43807;SDS011;29438;50.664;10.098;2022-07-18T12:52:54;2.03;;;0.43;;
43807;SDS011;29438;50.664;10.098;2022-07-18T12:55:21;1.55;;;0.40;;
43807;SDS011;29438;50.664;10.098;2022-07-18T12:57:47;1.30;;;0.43;;
43807;SDS011;29438;50.664;10.098;2022-07-18T13:00:13;1.92;;;0.47;;
43807;SDS011;29438;50.664;10.098;2022-07-18T13:02:39;2.03;;;0.40;;
43807;SDS011;29438;50.664;10.098;2022-07-18T13:05:07;2.00;;;0.40;;
43807;SDS011;29438;50.664;10.098;2022-07-18T13:07:32;3.58;;;0.50;;
43807;SDS011;29438;50.664;10.098;2022-07-18T13:09:58;1.60;;;0.50;;
43807;SDS011;29438;50.664;10.098;2022-07-18T13:12:23;1.70;;;0.35;;
43807;SDS011;29438;50.664;10.098;2022-07-18T13:14:49;5.22;;;0.32;;
43807;SDS011;29438;50.664;10.098;2022-07-18T13:17:14;1.65;;;0.50;;
43807;SDS011;29438;50.664;10.098;2022-07-18T13:19:40;1.20;;;0.50;;
43807;SDS011;29438;50.664;10.098;2022-07-18T13:22:05;1.30;;;0.40;;
43807;SDS011;29438;50.664;10.098;2022-07-18T13:24:31;1.70;;;0.52;;
43807;SDS011;29438;50.664;10.098;2022-07-18T13:26:56;2.40;;;0.50;;
43807;SDS011;29438;50.664;10.098;2022-07-18T13:29:22;1.55;;;0.50;;
43807;SDS011;29438;50.664;10.098;2022-07-18T13:31:48;1.98;;;0.60;;
43807;SDS011;29438;50.664;10.098;2022-07-18T13:34:15;2.22;;;0.47;;
43807;SDS011;29438;50.664;10.098;2022-07-18T13:36:42;2.95;;;0.60;;
43807;SDS011;29438;50.664;10.098;2022-07-18T13:39:07;1.48;;;0.40;;
43807;SDS011;29438;50.664;10.098;2022-07-18T13:41:32;1.45;;;0.50;;
43807;SDS011;29438;50.664;10.098;2022-07-18T13:43:58;1.45;;;0.40;;
43807;SDS011;29438;50.664;10.098;2022-07-18T13:46:24;1.42;;;0.40;;
43807;SDS011;29438;50.664;10.098;2022-07-18T13:48:49;1.35;;;0.40;;
43807;SDS011;29438;50.664;10.098;2022-07-18T13:51:15;1.27;;;0.40;;
43807;SDS011;29438;50.664;10.098;2022-07-18T13:53:41;2.00;;;0.63;;
43807;SDS011;29438;50.664;10.098;2022-07-18T13:56:07;2.38;;;0.50;;
43807;SDS011;29438;50.664;10.098;2022-07-18T13:58:32;1.92;;;0.70;;
43807;SDS011;29438;50.664;10.098;2022-07-18T14:00:58;1.23;;;0.50;;
43807;SDS011;29438;50.664;10.098;2022-07-18T14:03:24;1.85;;;0.60;;
43807;SDS011;29438;50.664;10.098;2022-07-18T14:05:49;1.70;;;0.60;;
43807;SDS011;29438;50.664;10.098;2022-07-18T14:08:15;2.17;;;0.65;;
43807;SDS011;29438;50.664;10.098;2022-07-18T14:10:40;1.83;;;0.50;;
43807;SDS011;29438;50.664;10.098;2022-07-18T14:13:06;1.98;;;0.60;;
43807;SDS011;29438;50.664;10.098;2022-07-18T14:15:32;2.40;;;0.60;;
43807;SDS011;29438;50.664;10.098;2022-07-18T14:17:57;1.85;;;0.50;;
43807;SDS011;29438;50.664;10.098;2022-07-18T14:20:23;1.60;;;0.60;;
43807;SDS011;29438;50.664;10.098;2022-07-18T14:22:48;1.58;;;0.45;;
43807;SDS011;29438;50.664;10.098;2022-07-18T14:25:15;1.35;;;0.50;;
43807;SDS011;29438;50.664;10.098;2022-07-18T14:27:42;2.42;;;0.70;;
43807;SDS011;29438;50.664;10.098;2022-07-18T14:30:10;2.67;;;0.65;;
43807;SDS011;29438;50.664;10.098;2022-07-18T14:32:37;1.30;;;0.55;;
43807;SDS011;29438;50.664;10.098;2022-07-18T14:35:03;2.25;;;0.75;;
43807;SDS011;29438;50.664;10.098;2022-07-18T14:37:29;2.88;;;0.38;;
43807;SDS011;29438;50.664;10.098;2022-07-18T14:39:55;3.50;;;0.60;;
43807;SDS011;29438;50.664;10.098;2022-07-18T14:42:21;1.40;;;0.63;;
43807;SDS011;29438;50.664;10.098;2022-07-18T14:44:47;2.00;;;0.70;;
43807;SDS011;29438;50.664;10.098;2022-07-18T14:47:13;2.40;;;0.50;;
43807;SDS011;29438;50.664;10.098;2022-07-18T14:49:38;1.58;;;0.60;;
43807;SDS011;29438;50.664;10.098;2022-07-18T14:52:04;1.95;;;0.70;;
43807;SDS011;29438;50.664;10.098;2022-07-18T14:54:29;2.38;;;0.50;;
43807;SDS011;29438;50.664;10.098;2022-07-18T14:56:55;3.58;;;0.55;;
43807;SDS011;29438;50.664;10.098;2022-07-18T14:59:22;1.50;;;0.52;;
43807;SDS011;29438;50.664;10.098;2022-07-18T15:01:47;2.00;;;0.52;;
43807;SDS011;29438;50.664;10.098;2022-07-18T15:04:13;1.95;;;0.60;;
43807;SDS011;29438;50.664;10.098;2022-07-18T15:06:39;2.45;;;0.70;;
43807;SDS011;29438;50.664;10.098;2022-07-18T15:09:06;2.65;;;0.60;;
43807;SDS011;29438;50.664;10.098;2022-07-18T15:11:33;2.28;;;0.70;;
43807;SDS011;29438;50.664;10.098;2022-07-18T15:13:59;2.22;;;0.55;;
43807;SDS011;29438;50.664;10.098;2022-07-18T15:16:25;2.00;;;0.68;;